Time;durP1;ratioP1;P1;durP2;ratioP2;P2;SDS_P1;SDS_P2;PMS_P1;PMS_P2;Temp;Humidity;BMP_temperature;BMP_pressure;BME280_temperature;BME280_humidity;BME280_pressure;Samples;Min_cycle;Max_cycle;Signal;HPM_P1;HPM_P2
2022/06/26 00:00:37;;;;;;;;;14.00;14.00;;;;;17.98;85.75;99309.44;6301598;20;2484298;-73
2022/06/26 00:03:06;;;;;;;;;12.33;11.33;;;;;17.83;86.14;99314.53;6267145;20;3506622;-73
2022/06/26 00:05:35;;;;;;;;;12.00;11.00;;;;;17.80;84.79;99308.53;6303485;20;3508596;-73
2022/06/26 00:08:05;;;;;;;;;13.33;12.67;;;;;17.52;86.42;99311.19;6298989;20;3528405;-72
2022/06/26 00:10:34;;;;;;;;;11.00;11.00;;;;;17.75;85.48;99315.25;6267787;20;3512812;-73
2022/06/26 00:13:02;;;;;;;;;16.00;13.00;;;;;17.28;87.38;99315.25;6303713;20;2814880;-72
2022/06/26 00:15:31;;;;;;;;;17.00;13.00;;;;;17.30;87.84;99318.69;6302047;20;2816932;-72
2022/06/26 00:17:59;;;;;;;;;12.00;12.00;;;;;17.32;87.82;99319.41;6306908;20;2805501;-71
2022/06/26 00:20:29;;;;;;;;;13.33;11.00;;;;;17.33;87.80;99326.53;6270170;20;3516908;-72
2022/06/26 00:22:57;;;;;;;;;13.00;13.00;;;;;17.28;88.47;99327.97;6296686;20;3535652;-73
2022/06/26 00:25:26;;;;;;;;;14.33;13.33;;;;;17.73;86.50;99322.69;6297835;20;3533608;-73
2022/06/26 00:27:55;;;;;;;;;14.00;14.00;;;;;17.34;88.53;99327.38;6299040;20;2483632;-72
2022/06/26 00:30:24;;;;;;;;;21.00;17.50;;;;;17.26;88.75;99325.41;6269747;20;2833599;-72
2022/06/26 00:32:52;;;;;;;;;15.00;15.00;;;;;17.15;89.32;99324.72;6268299;20;2489935;-72
2022/06/26 00:35:20;;;;;;;;;16.00;14.00;;;;;16.73;91.77;99333.97;6264640;20;2498194;-72
2022/06/26 00:37:48;;;;;;;;;18.00;16.00;;;;;17.26;89.28;99325.41;6270577;20;3562731;-73
2022/06/26 00:40:17;;;;;;;;;16.33;16.00;;;;;17.57;86.52;99322.47;6302317;20;2815994;-72
2022/06/26 00:42:45;;;;;;;;;16.50;16.50;;;;;17.07;88.92;99336.28;6297536;20;2487759;-73
2022/06/26 00:45:14;;;;;;;;;15.67;14.00;;;;;16.62;89.71;99336.84;6268458;20;3535852;-70
2022/06/26 00:47:42;;;;;;;;;12.33;12.33;;;;;16.18;91.35;99349.88;6265915;20;2803452;-72
2022/06/26 00:50:10;;;;;;;;;11.00;11.00;;;;;15.80;92.71;99346.06;6302123;20;2804544;-71
2022/06/26 00:52:41;;;;;;;;;13.67;13.00;;;;;16.06;92.86;99348.28;6265431;20;3513428;-72
2022/06/26 00:55:10;;;;;;;;;16.00;14.33;;;;;16.08;92.28;99352.56;6299427;20;3546084;-72
2022/06/26 00:57:39;;;;;;;;;15.33;15.33;;;;;16.26;92.69;99351.91;6261423;20;3536723;-72
2022/06/26 01:00:10;;;;;;;;;14.00;14.00;;;;;16.64;90.48;99367.34;6298734;20;2800250;-73
2022/06/26 01:02:41;;;;;;;;;13.00;13.00;;;;;16.54;89.28;99367.38;6268777;20;3526275;-72
2022/06/26 01:05:10;;;;;;;;;14.00;13.00;;;;;16.56;90.59;99367.19;6262580;20;3522336;-72
2022/06/26 01:07:40;;;;;;;;;17.00;16.00;;;;;16.62;91.39;99369.38;6298313;20;2826823;-73
2022/06/26 01:10:09;;;;;;;;;24.50;23.50;;;;;16.73;91.30;99369.22;6268008;20;2844191;-73
2022/06/26 01:12:38;;;;;;;;;13.00;12.00;;;;;16.82;90.98;99360.25;6272099;20;2783640;-72
2022/06/26 01:15:09;;;;;;;;;9.50;8.50;;;;;16.55;91.31;99351.94;6268005;20;2755478;-72
2022/06/26 01:17:40;;;;;;;;;14.20;12.80;;;;;16.70;90.80;99358.69;6294805;20;2789879;-72
2022/06/26 01:20:10;;;;;;;;;14.00;14.00;;;;;16.26;92.80;99358.16;6268850;20;3533572;-73
2022/06/26 01:22:37;;;;;;;;;12.00;12.00;;;;;16.52;92.32;99357.66;6274323;20;1956530;-72
2022/06/26 01:25:06;;;;;;;;;16.00;13.00;;;;;16.86;89.98;99359.00;6263585;20;2491944;-72
2022/06/26 01:27:43;;;;;;;;;15.00;15.00;;;;;16.72;89.84;99364.81;6265265;20;2491951;-72
2022/06/26 01:30:12;;;;;;;;;11.67;11.00;;;;;16.71;90.17;99373.94;6267174;20;2780584;-72
2022/06/26 01:32:41;;;;;;;;;14.67;13.67;;;;;16.62;90.55;99375.66;6297981;20;3522663;-73
2022/06/26 01:35:10;;;;;;;;;10.67;9.33;;;;;16.76;89.59;99373.50;6295807;20;2781616;-71
2022/06/26 01:37:38;;;;;;;;;11.50;11.50;;;;;16.87;89.45;99371.53;6302318;20;2795044;-72
2022/06/26 01:40:08;;;;;;;;;9.67;9.67;;;;;16.88;88.88;99372.41;6270122;20;2771129;-73
2022/06/26 01:42:36;;;;;;;;;13.00;13.00;;;;;16.64;89.47;99372.78;6302051;20;2810620;-72
2022/06/26 01:45:05;;;;;;;;;12.33;12.33;;;;;16.58;90.33;99378.78;6267016;20;3537813;-73
2022/06/26 01:47:34;;;;;;;;;12.33;12.33;;;;;16.61;89.82;99378.47;6297034;20;2800520;-72
2022/06/26 01:50:04;;;;;;;;;13.00;13.00;;;;;16.82;88.85;99390.09;6296831;20;3536754;-72
2022/06/26 01:52:31;;;;;;;;;10.50;10.00;;;;;16.95;88.23;99394.38;6267291;20;2788818;-72
2022/06/26 01:55:01;;;;;;;;;13.00;12.00;;;;;16.74;89.13;99400.75;6268029;20;3523784;-73
2022/06/26 01:57:29;;;;;;;;;16.00;15.00;;;;;16.73;89.85;99395.50;6270478;20;2819021;-72
2022/06/26 01:59:56;;;;;;;;;15.00;15.00;;;;;16.83;90.04;99399.97;6267312;20;2816977;-72
2022/06/26 02:02:25;;;;;;;;;19.33;16.33;;;;;16.95;89.56;99395.25;6266862;20;3562752;-72
2022/06/26 02:04:53;;;;;;;;;15.00;15.00;;;;;17.07;90.00;99385.13;6267341;20;2808886;-72
2022/06/26 02:07:22;;;;;;;;;13.33;13.33;;;;;17.02;90.72;99388.25;6268219;20;3522141;-70
2022/06/26 02:15:24;;;;;;;;;14.00;13.00;;;;;17.11;91.62;99413.66;6265438;20;2500707;-73
2022/06/26 02:17:54;;;;;;;;;10.67;10.67;;;;;17.17;92.00;99415.81;6268664;20;3518458;-73
2022/06/26 02:20:23;;;;;;;;;18.67;15.00;;;;;17.31;92.33;99404.50;6297731;20;3540887;-72
2022/06/26 02:22:51;;;;;;;;;18.00;15.00;;;;;17.32;92.67;99402.66;6263905;20;2821267;-75
2022/06/26 02:25:19;;;;;;;;;14.00;14.00;;;;;17.31;93.31;99404.50;6267542;20;2810796;-73
2022/06/26 02:27:48;;;;;;;;;14.00;12.00;;;;;17.38;93.57;99407.50;6269885;20;2777382;-74
2022/06/26 02:30:17;;;;;;;;;15.67;14.67;;;;;17.52;92.83;99408.91;6268851;20;3541913;-72
2022/06/26 02:32:45;;;;;;;;;16.67;14.00;;;;;17.52;92.83;99409.75;6269155;20;2819065;-71
2022/06/26 02:35:13;;;;;;;;;13.00;13.00;;;;;17.52;92.79;99417.06;6300375;20;2821230;-75
2022/06/26 02:37:42;;;;;;;;;13.67;13.67;;;;;17.64;92.55;99421.34;6267704;20;3520157;-72
2022/06/26 02:40:12;;;;;;;;;15.00;13.67;;;;;17.51;93.19;99404.50;6293762;20;3519111;-75
2022/06/26 02:42:39;;;;;;;;;14.00;13.00;;;;;17.67;92.49;99412.03;6299438;20;2806520;-73
2022/06/26 02:45:09;;;;;;;;;19.67;15.33;;;;;17.69;92.67;99419.03;6263874;20;3551024;-74
2022/06/26 02:47:38;;;;;;;;;16.67;14.33;;;;;17.77;92.37;99421.88;6265835;20;2819006;-73
2022/06/26 02:50:09;;;;;;;;;13.33;11.67;;;;;17.83;91.95;99412.31;6295765;20;3521200;-71
2022/06/26 02:52:38;;;;;;;;;14.00;12.67;;;;;17.76;91.78;99408.44;6262362;20;2795129;-72
2022/06/26 02:55:07;;;;;;;;;15.00;13.00;;;;;17.81;91.51;99416.16;6295035;20;2806516;-74
2022/06/26 02:57:35;;;;;;;;;15.33;14.33;;;;;17.62;92.10;99417.91;6263899;20;3542030;-71
2022/06/26 03:00:09;;;;;;;;;13.33;13.33;;;;;17.69;91.72;99416.31;6263004;20;3516058;-72
2022/06/26 03:02:37;;;;;;;;;16.00;15.00;;;;;17.64;91.69;99415.91;6294999;20;2485700;-72
2022/06/26 03:05:07;;;;;;;;;12.00;10.00;;;;;17.57;90.84;99427.50;6264808;20;3523173;-72
2022/06/26 03:07:36;;;;;;;;;15.33;15.33;;;;;17.84;90.08;99422.16;6279040;20;2809668;-73
2022/06/26 03:10:07;;;;;;;;;16.00;14.00;;;;;17.66;89.81;99427.44;6295908;20;2812922;-73
2022/06/26 03:12:45;;;;;;;;;15.50;15.50;;;;;17.57;90.43;99432.91;6264624;20;2814962;-73
2022/06/26 03:15:14;;;;;;;;;14.67;14.33;;;;;17.60;89.12;99430.75;6259814;20;3530486;-73
2022/06/26 03:17:42;;;;;;;;;15.50;14.00;;;;;17.19;91.07;99432.78;6299108;20;2487789;-73
2022/06/26 03:20:17;;;;;;;;;17.00;14.50;;;;;17.02;91.13;99439.78;6264873;20;2491927;-73
2022/06/26 03:22:47;;;;;;;;;15.00;15.00;;;;;17.17;91.67;99439.34;6266335;20;2494149;-72
2022/06/26 03:25:15;;;;;;;;;17.00;16.00;;;;;16.89;92.39;99437.34;6264696;20;2485677;-72
2022/06/26 03:27:43;;;;;;;;;15.00;15.00;;;;;17.08;91.90;99436.50;6266771;20;2489997;-71
2022/06/26 03:30:13;;;;;;;;;20.00;18.00;;;;;17.01;91.65;99446.22;6269465;20;3569140;-71
2022/06/26 03:32:42;;;;;;;;;16.33;15.33;;;;;16.78;92.53;99447.47;6268371;20;3554426;-70
2022/06/26 03:35:12;;;;;;;;;17.00;17.00;;;;;16.24;95.18;99442.31;6268032;20;3554499;-72
2022/06/26 03:37:41;;;;;;;;;14.00;14.00;;;;;16.72;94.10;99450.69;6272198;20;3534625;-72
2022/06/26 03:40:10;;;;;;;;;18.00;18.00;;;;;16.93;92.20;99439.78;6264711;20;2500259;-72
2022/06/26 03:42:39;;;;;;;;;20.00;17.00;;;;;16.82;93.44;99438.03;6270600;20;3571058;-73
2022/06/26 03:45:10;;;;;;;;;17.33;15.67;;;;;17.01;92.93;99439.91;6269440;20;3560679;-72
2022/06/26 03:47:38;;;;;;;;;16.33;16.33;;;;;17.04;93.63;99445.09;6267716;20;3566974;-72
2022/06/26 03:50:09;;;;;;;;;16.00;16.00;;;;;17.42;92.00;99449.63;6269778;20;2816944;-72
2022/06/26 03:52:38;;;;;;;;;16.33;15.33;;;;;17.56;91.68;99445.63;6266664;20;3558553;-71
2022/06/26 03:55:07;;;;;;;;;15.33;15.33;;;;;17.46;92.07;99445.66;6264605;20;3538821;-71
2022/06/26 03:57:35;;;;;;;;;16.50;16.50;;;;;17.50;92.28;99451.63;6268292;20;2492058;-72
2022/06/26 04:00:05;;;;;;;;;17.50;15.50;;;;;17.71;91.20;99455.03;6267932;20;2823967;-73
2022/06/26 04:02:34;;;;;;;;;16.00;15.33;;;;;17.90;89.96;99461.44;6268526;20;3552335;-72
2022/06/26 04:05:04;;;;;;;;;16.00;15.67;;;;;17.90;91.00;99453.31;6270999;20;3551339;-72
2022/06/26 04:07:33;;;;;;;;;14.50;12.00;;;;;17.85;91.19;99455.59;6267450;20;2500260;-72
2022/06/26 04:10:01;;;;;;;;;16.50;15.50;;;;;18.11;90.21;99462.09;6267877;20;2491937;-71
2022/06/26 04:12:29;;;;;;;;;15.67;14.33;;;;;18.19;90.90;99454.09;6272797;20;2807692;-73
2022/06/26 04:14:58;;;;;;;;;17.00;16.00;;;;;18.26;90.67;99459.75;6296574;20;2829548;-72
2022/06/26 04:17:27;;;;;;;;;15.00;15.00;;;;;18.46;89.80;99456.94;6273842;20;3538795;-72
2022/06/26 04:19:55;;;;;;;;;18.50;17.00;;;;;18.72;88.24;99465.25;6267002;20;2483803;-72
2022/06/26 04:22:23;;;;;;;;;18.50;15.00;;;;;18.80;88.84;99462.66;6268058;20;2491956;-72
2022/06/26 04:24:52;;;;;;;;;13.67;13.33;;;;;18.65;89.51;99465.88;6268810;20;3529536;-72
2022/06/26 04:27:20;;;;;;;;;16.67;13.00;;;;;18.80;89.05;99466.25;6270163;20;3531519;-73
2022/06/26 04:29:48;;;;;;;;;15.50;14.00;;;;;18.95;88.76;99458.41;6268809;20;2485705;-73
2022/06/26 04:32:16;;;;;;;;;15.00;14.00;;;;;19.10;88.00;99464.19;6269675;20;2491924;-71
2022/06/26 04:34:45;;;;;;;;;19.33;16.33;;;;;19.16;88.09;99468.16;6271458;20;3556511;-70
2022/06/26 04:37:13;;;;;;;;;14.00;13.50;;;;;19.25;87.67;99462.63;6271079;20;2491951;-72
2022/06/26 04:39:41;;;;;;;;;14.33;14.33;;;;;19.20;88.07;99464.97;6268221;20;3532654;-75
2022/06/26 04:42:10;;;;;;;;;14.00;14.00;;;;;19.41;87.90;99466.53;6301050;20;3531753;-72
2022/06/26 04:44:39;;;;;;;;;12.33;12.33;;;;;19.57;86.40;99465.81;6267193;20;3526260;-73
2022/06/26 04:47:07;;;;;;;;;16.00;14.00;;;;;19.71;85.43;99473.44;6267765;20;3529519;-72
2022/06/26 04:49:36;;;;;;;;;16.33;16.33;;;;;19.82;85.35;99462.28;6269871;20;3563911;-72
2022/06/26 04:52:05;;;;;;;;;15.00;12.00;;;;;19.93;85.23;99470.22;6270283;20;2782606;-71
2022/06/26 04:54:33;;;;;;;;;14.67;14.67;;;;;19.85;85.43;99469.28;6266622;20;3533568;-72
2022/06/26 04:57:03;;;;;;;;;14.00;14.00;;;;;20.15;84.94;99471.53;6268416;20;3528348;-71
2022/06/26 04:59:30;;;;;;;;;16.00;16.00;;;;;20.40;83.93;99479.84;6266906;20;2483672;-72
2022/06/26 05:01:58;;;;;;;;;12.50;12.00;;;;;20.54;82.93;99482.00;6271177;20;2799255;-72
2022/06/26 05:04:27;;;;;;;;;10.00;10.00;;;;;20.69;82.87;99479.47;6273454;20;2778500;-74
2022/06/26 05:06:55;;;;;;;;;13.00;12.00;;;;;20.77;83.15;99481.41;6267691;20;3521064;-72
2022/06/26 05:09:25;;;;;;;;;15.00;13.00;;;;;21.05;81.76;99479.28;6297107;20;3529429;-71
2022/06/26 05:11:53;;;;;;;;;10.00;10.00;;;;;21.17;81.24;99488.88;6266007;20;3513770;-72
2022/06/26 05:14:22;;;;;;;;;12.33;12.00;;;;;21.24;82.44;99492.63;6299594;20;2808733;-72
2022/06/26 05:16:51;;;;;;;;;14.00;14.00;;;;;21.76;80.84;99502.44;6298645;20;2483648;-71
2022/06/26 05:19:20;;;;;;;;;12.33;11.67;;;;;21.79;79.76;99493.88;6298547;20;3522284;-73
2022/06/26 05:21:56;;;;;;;;;14.00;14.00;;;;;22.10;79.39;99496.75;6268618;20;3528378;-72
2022/06/26 05:24:25;;;;;;;;;9.67;9.67;;;;;22.31;77.87;99498.97;6270483;20;2483630;-72
2022/06/26 05:26:54;;;;;;;;;8.67;8.67;;;;;22.28;77.22;99499.34;6296481;20;3460824;-70
2022/06/26 05:29:23;;;;;;;;;11.67;11.00;;;;;22.70;75.91;99503.66;6301968;20;2787562;-72
2022/06/26 05:31:52;;;;;;;;;13.00;12.00;;;;;22.91;74.81;99504.94;6296009;20;3534615;-70
2022/06/26 05:34:22;;;;;;;;;12.33;12.33;;;;;23.07;75.09;99507.63;6266808;20;3539893;-70
2022/06/26 05:36:51;;;;;;;;;10.00;9.00;;;;;23.40;72.75;99521.94;6271184;20;2768988;-67
2022/06/26 05:39:19;;;;;;;;;10.33;10.33;;;;;23.36;71.80;99520.63;6300215;20;2789893;-68
2022/06/26 05:41:48;;;;;;;;;11.00;9.33;;;;;23.54;70.78;99516.72;6296033;20;3500238;-66
2022/06/26 05:44:18;;;;;;;;;7.60;7.60;;;;;23.55;71.02;99512.97;6322424;20;2735711;-66
2022/06/26 05:46:46;;;;;;;;;9.33;9.33;;;;;23.54;70.08;99522.19;6271460;20;2755504;-67
2022/06/26 05:49:15;;;;;;;;;9.67;9.67;;;;;23.83;69.43;99529.75;6294702;20;3497135;-66
2022/06/26 05:51:43;;;;;;;;;8.67;8.67;;;;;24.05;68.81;99525.25;6301338;20;2750253;-66
2022/06/26 05:54:12;;;;;;;;;10.00;10.00;;;;;24.29;68.30;99533.25;6298508;20;3515850;-67
2022/06/26 05:56:41;;;;;;;;;10.67;9.67;;;;;24.31;67.72;99536.66;6296690;20;2784642;-67
2022/06/26 05:59:10;;;;;;;;;11.33;11.00;;;;;23.93;69.79;99540.44;6299408;20;3519023;-66
2022/06/26 06:01:38;;;;;;;;;9.33;9.33;;;;;24.21;67.77;99536.06;6262619;20;2769019;-67
2022/06/26 06:04:09;;;;;;;;;11.00;11.00;;;;;24.48;67.68;99539.25;6297097;20;3529450;-66
2022/06/26 06:06:37;;;;;;;;;12.33;12.00;;;;;24.44;68.33;99535.16;6262355;20;3546130;-67
2022/06/26 06:09:06;;;;;;;;;12.00;10.67;;;;;24.73;66.63;99540.69;6267431;20;2790001;-66
2022/06/26 06:11:35;;;;;;;;;12.67;11.00;;;;;24.90;65.89;99540.50;6300792;20;2804429;-69
2022/06/26 06:14:04;;;;;;;;;9.67;9.67;;;;;24.81;66.24;99538.91;6296637;20;3495040;-66
2022/06/26 06:16:34;;;;;;;;;11.40;9.80;;;;;24.88;65.48;99531.59;6324090;20;2792983;-67
2022/06/26 06:19:02;;;;;;;;;12.33;10.67;;;;;25.16;65.84;99543.63;6266960;20;3514805;-65
2022/06/26 06:21:31;;;;;;;;;8.67;8.67;;;;;25.16;64.77;99535.38;6303894;20;2739948;-66
2022/06/26 06:23:59;;;;;;;;;10.67;10.67;;;;;25.22;65.02;99544.72;6301185;20;2787775;-67
2022/06/26 06:26:28;;;;;;;;;10.00;10.00;;;;;25.53;64.41;99547.22;6298389;20;2790988;-66
2022/06/26 06:28:57;;;;;;;;;9.00;9.00;;;;;26.02;64.61;99551.13;6298339;20;3469121;-67
2022/06/26 06:31:26;;;;;;;;;10.67;10.67;;;;;26.13;64.83;99553.34;6269710;20;3512795;-67
2022/06/26 06:33:54;;;;;;;;;10.00;10.00;;;;;26.07;64.17;99559.66;6262205;20;3501272;-68
2022/06/26 06:36:23;;;;;;;;;10.67;10.67;;;;;26.06;64.55;99556.00;6293396;20;3519109;-68
2022/06/26 06:38:52;;;;;;;;;14.50;13.00;;;;;25.70;64.72;99557.97;6256379;20;2672210;-67
2022/06/26 06:41:20;;;;;;;;;9.00;9.00;;;;;26.29;63.22;99557.69;6291069;20;3474235;-67
2022/06/26 06:43:49;;;;;;;;;12.00;12.00;;;;;26.78;61.67;99551.31;6301725;20;2483589;-67
2022/06/26 06:46:17;;;;;;;;;7.00;7.00;;;;;27.17;60.81;99560.84;6303717;20;2752370;-67
2022/06/26 06:48:46;;;;;;;;;10.00;10.00;;;;;27.15;60.77;99560.19;6294727;20;3508721;-66
2022/06/26 06:51:14;;;;;;;;;11.33;10.00;;;;;27.20;59.43;99571.47;6300295;20;2778573;-66
2022/06/26 06:53:43;;;;;;;;;9.00;9.00;;;;;27.45;58.75;99570.94;6286023;20;3353435;-67
2022/06/26 06:56:13;;;;;;;;;8.00;6.60;;;;;26.76;60.25;99564.44;6318694;20;2729073;-68
2022/06/26 06:58:41;;;;;;;;;6.00;6.00;;;;;27.51;58.57;99565.41;6264305;20;2746171;-69
2022/06/26 07:01:10;;;;;;;;;8.67;7.00;;;;;27.94;56.36;99567.06;6293480;20;2744630;-71
2022/06/26 07:03:39;;;;;;;;;8.00;8.00;;;;;28.33;55.05;99570.88;6300880;20;2756586;-66
2022/06/26 07:06:08;;;;;;;;;8.33;7.33;;;;;28.28;56.34;99578.94;6308146;20;2753409;-63
2022/06/26 07:08:37;;;;;;;;;6.00;6.00;;;;;28.05;55.27;99585.75;6324599;20;2743096;-68
2022/06/26 07:11:07;;;;;;;;;4.00;4.00;;;;;28.20;54.33;99586.41;6294343;20;2752416;-70
2022/06/26 07:13:35;;;;;;;;;5.00;5.00;;;;;28.54;53.70;99579.00;6268931;20;2734818;-70
2022/06/26 07:16:05;;;;;;;;;6.33;5.33;;;;;28.45;53.83;99583.03;6301862;20;2740887;-70
2022/06/26 07:18:34;;;;;;;;;5.00;5.00;;;;;28.76;52.79;99576.81;4893843;20;2737770;-66
2022/06/26 07:21:04;;;;;;;;;5.00;5.00;;;;;28.45;52.56;99575.59;6285925;20;2732644;-65
2022/06/26 07:23:33;;;;;;;;;6.40;6.40;;;;;29.30;51.90;99580.28;6341922;20;2744002;-65
2022/06/26 07:26:03;;;;;;;;;5.00;5.00;;;;;29.12;51.90;99574.63;6287463;20;2732690;-65
2022/06/26 07:28:33;;;;;;;;;3.00;3.00;;;;;29.08;51.99;99575.06;6341021;20;2744091;-64
2022/06/26 07:31:01;;;;;;;;;6.00;6.00;;;;;29.33;51.43;99577.09;6294624;20;2746125;-64
2022/06/26 07:36:18;;;;;;;;;6.67;6.67;;;;;29.82;51.15;99580.28;6282376;20;2741040;-65
2022/06/26 07:38:46;;;;;;;;;7.00;7.00;;;;;29.81;50.19;99576.69;6313223;20;2734788;-65
2022/06/26 07:41:15;;;;;;;;;5.67;5.67;;;;;29.65;50.51;99574.41;6317946;20;2737932;-64
2022/06/26 07:43:44;;;;;;;;;4.00;4.00;;;;;30.01;50.40;99586.75;6316114;20;2749310;-64
2022/06/26 07:46:12;;;;;;;;;7.67;6.00;;;;;30.18;49.28;99590.69;6314664;20;2729455;-65
2022/06/26 07:48:41;;;;;;;;;6.00;6.00;;;;;29.74;49.69;99581.41;6320248;20;2741964;-63
2022/06/26 07:51:10;;;;;;;;;5.33;5.33;;;;;29.47;49.25;99575.97;6320412;20;2734663;-64
2022/06/26 07:53:38;;;;;;;;;6.00;6.00;;;;;29.43;50.85;99571.94;6321081;20;2744036;-62
2022/06/26 07:56:07;;;;;;;;;5.67;5.67;;;;;29.90;49.35;99575.31;6313350;20;2738153;-63
2022/06/26 07:58:35;;;;;;;;;7.00;7.00;;;;;29.52;51.29;99573.41;6321516;20;2741947;-59
2022/06/26 08:01:04;;;;;;;;;5.00;5.00;;;;;29.82;49.45;99578.34;6319280;20;2739856;-60
2022/06/26 08:03:32;;;;;;;;;5.67;5.67;;;;;29.75;49.89;99583.06;6321622;20;2738834;-60
2022/06/26 08:06:01;;;;;;;;;8.00;6.00;;;;;29.59;49.33;99575.28;6322230;20;2740930;-60
2022/06/26 08:08:29;;;;;;;;;4.33;4.33;;;;;29.84;49.11;99579.00;6323436;20;2736741;-60
2022/06/26 08:10:58;;;;;;;;;4.00;4.00;;;;;29.60;48.87;99579.75;6322249;20;2739854;-61
2022/06/26 08:13:28;;;;;;;;;4.60;4.60;;;;;29.89;47.36;99581.94;6344145;20;2721129;-62
2022/06/26 08:15:59;;;;;;;;;4.00;4.00;;;;;29.98;47.31;99580.59;6319625;20;2744007;-61
2022/06/26 08:18:29;;;;;;;;;4.00;4.00;;;;;30.30;45.96;99574.22;6344596;20;2731550;-62
2022/06/26 08:22:00;;;;;;;;;4.20;4.00;;;;;30.27;46.36;99578.28;6313511;20;2735721;-60
2022/06/26 08:23:47;;;;;;;;;4.67;4.67;;;;;30.53;46.24;99576.34;6289017;20;2733623;-61
2022/06/26 08:26:17;;;;;;;;;4.40;4.40;;;;;30.89;46.13;99575.59;6343422;20;2726277;-61
2022/06/26 08:28:46;;;;;;;;;5.00;5.00;;;;;30.13;45.76;99576.66;6290239;20;2727392;-61
2022/06/26 08:31:14;;;;;;;;;4.67;4.67;;;;;31.02;44.11;99581.00;6321923;20;2731500;-61
2022/06/26 08:33:43;;;;;;;;;3.67;3.67;;;;;31.47;41.73;99577.06;6316720;20;2736781;-61
2022/06/26 08:36:12;;;;;;;;;4.20;4.20;;;;;31.71;42.34;99578.88;6342086;20;2748175;-61
2022/06/26 08:38:43;;;;;;;;;7.20;5.20;;;;;30.95;42.09;99580.22;6317377;20;2735730;-63
2022/06/26 08:41:13;;;;;;;;;5.00;3.00;;;;;31.40;42.68;99584.63;6311653;20;2742953;-63
2022/06/26 08:43:44;;;;;;;;;3.00;3.00;;;;;31.33;44.23;99581.06;6309355;20;2745045;-61
2022/06/26 08:46:14;;;;;;;;;6.00;6.00;;;;;31.53;42.78;99575.28;6289428;20;2738812;-62
2022/06/26 08:48:45;;;;;;;;;6.00;6.00;;;;;31.58;43.43;99576.28;6340295;20;2748178;-61
2022/06/26 08:51:14;;;;;;;;;5.00;5.00;;;;;31.44;43.20;99572.00;6288605;20;2739836;-60
2022/06/26 08:53:43;;;;;;;;;4.00;4.00;;;;;31.57;41.48;99576.50;6317928;20;2739908;-58
2022/06/26 08:56:13;;;;;;;;;1.60;1.60;;;;;31.00;39.71;99576.75;6344655;20;2756596;-59
2022/06/26 08:58:43;;;;;;;;;1.00;1.00;;;;;31.61;38.97;99577.75;6312282;20;2735667;-58
2022/06/26 09:01:13;;;;;;;;;4.60;3.60;;;;;31.81;37.62;99574.66;6313369;20;2742113;-60
2022/06/26 09:03:43;;;;;;;;;3.60;3.60;;;;;31.58;39.04;99572.66;6312164;20;2739843;-60
2022/06/26 09:06:12;;;;;;;;;6.60;4.40;;;;;31.56;38.51;99577.59;6309506;20;2732686;-61
2022/06/26 09:08:48;;;;;;;;;4.40;3.00;;;;;31.64;38.21;99586.44;6311143;20;2754426;-61
2022/06/26 09:11:19;;;;;;;;;3.80;2.80;;;;;32.37;34.20;99578.94;6312813;20;2737804;-61
2022/06/26 09:13:52;;;;;;;;;3.00;1.80;;;;;32.52;34.94;99582.16;6312209;20;2733619;-61
2022/06/26 09:16:31;;;;;;;;;2.00;2.00;;;;;32.58;35.28;99583.09;6309712;20;2735679;-61
2022/06/26 09:19:18;;;;;;;;;3.60;3.60;;;;;31.18;36.92;99579.53;6310164;20;2737786;-59
2022/06/26 09:21:49;;;;;;;;;4.33;3.00;;;;;32.15;35.39;99578.69;6288860;20;2748191;-59
2022/06/26 09:24:21;;;;;;;;;2.00;2.00;;;;;31.71;37.93;99576.09;6341394;20;2739889;-61
2022/06/26 09:27:21;;;;;;;;;4.00;4.00;;;;;32.31;38.23;99585.47;6309528;20;2731538;-59
2022/06/26 09:29:54;;;;;;;;;4.80;4.20;;;;;32.28;38.58;99583.16;6310729;20;2732654;-59
2022/06/26 09:32:27;;;;;;;;;3.67;3.67;;;;;32.16;37.42;99580.38;6284843;20;2754497;-59
2022/06/26 09:34:56;;;;;;;;;7.00;7.00;;;;;32.45;37.61;99573.03;6318859;20;2740913;-59
2022/06/26 09:37:39;;;;;;;;;4.00;3.00;;;;;33.29;36.00;99583.06;6338787;20;2748276;-60
2022/06/26 09:40:27;;;;;;;;;3.00;3.00;;;;;33.55;36.92;99582.53;6289776;20;2739861;-60
2022/06/26 09:42:56;;;;;;;;;4.00;3.67;;;;;33.10;37.12;99576.78;6318820;20;2754840;-61
2022/06/26 09:45:25;;;;;;;;;5.33;5.33;;;;;32.43;36.86;99575.19;6315676;20;2738788;-59
2022/06/26 09:47:55;;;;;;;;;5.00;3.00;;;;;32.51;37.05;99572.09;6340997;20;2747112;-60
2022/06/26 09:50:25;;;;;;;;;4.80;3.40;;;;;32.81;36.31;99571.16;6309160;20;2751308;-60
2022/06/26 09:52:54;;;;;;;;;3.00;3.00;;;;;32.50;36.55;99570.41;6310757;20;2764891;-60
2022/06/26 09:55:27;;;;;;;;;4.00;2.33;;;;;32.31;38.07;99571.59;6337086;20;2567952;-59
2022/06/26 09:57:56;;;;;;;;;3.00;3.00;;;;;32.14;38.50;99569.47;6318269;20;2730470;-60
2022/06/26 10:00:26;;;;;;;;;3.40;3.40;;;;;32.13;38.01;99575.28;6339097;20;2740876;-59
2022/06/26 10:08:37;;;;;;;;;4.40;4.40;;;;;32.12;38.48;99562.47;6340723;20;2741988;-59
2022/06/26 10:11:06;;;;;;;;;3.00;3.00;;;;;32.78;38.78;99568.81;6287992;20;2737762;-59
2022/06/26 10:13:38;;;;;;;;;4.00;4.00;;;;;33.77;37.45;99579.88;6314870;20;2748175;-60
2022/06/26 10:16:41;;;;;;;;;3.00;3.00;;;;;32.68;37.43;99576.97;6339767;20;2734666;-60
2022/06/26 10:19:40;;;;;;;;;8.00;8.00;;;;;33.00;37.54;99564.34;6286287;20;2756772;-61
2022/06/26 10:22:10;;;;;;;;;5.33;3.00;;;;;32.48;38.04;99561.47;6315224;20;2742967;-60
2022/06/26 10:25:03;;;;;;;;;3.00;3.00;;;;;32.51;38.08;99560.97;6338468;20;2731570;-58
2022/06/26 10:27:35;;;;;;;;;4.33;3.33;;;;;33.01;37.80;99565.22;6288088;20;2745143;-60
2022/06/26 10:30:18;;;;;;;;;3.33;3.33;;;;;33.14;37.38;99564.09;6315618;20;2742963;-59
2022/06/26 10:33:07;;;;;;;;;6.67;6.33;;;;;32.84;36.17;99569.81;6314632;20;2739848;-58
2022/06/26 10:35:47;;;;;;;;;7.67;6.00;;;;;33.28;37.30;99568.28;6317670;20;2751385;-58
2022/06/26 10:38:28;;;;;;;;;3.60;3.60;;;;;32.95;36.19;99569.78;6342750;20;2741036;-59
2022/06/26 10:44:18;;;;;;;;;2.80;2.80;;;;;32.82;36.02;99572.81;6316871;20;2736049;-59
2022/06/26 10:46:56;;;;;;;;;3.33;3.33;;;;;32.84;36.16;99567.88;6291318;20;2730591;-60
2022/06/26 10:49:25;;;;;;;;;5.33;5.33;;;;;33.27;35.94;99569.38;6321403;20;2738938;-60
2022/06/26 10:51:55;;;;;;;;;5.33;4.67;;;;;33.03;35.33;99564.97;6321540;20;2735673;-60
2022/06/26 10:54:32;;;;;;;;;3.00;3.00;;;;;32.55;38.38;99562.19;6319321;20;2746085;-59
2022/06/26 10:57:16;;;;;;;;;3.00;3.00;;;;;32.82;37.23;99561.69;6322986;20;2731540;-59
2022/06/26 10:59:45;;;;;;;;;5.00;3.33;;;;;33.05;36.72;99557.25;6323688;20;2745041;-61
2022/06/26 11:02:15;;;;;;;;;4.00;4.00;;;;;32.43;38.12;99561.31;6323262;20;2731598;-60
2022/06/26 11:04:50;;;;;;;;;7.67;6.00;;;;;33.37;35.91;99557.63;6321106;20;2743125;-60
2022/06/26 11:07:19;;;;;;;;;3.00;3.00;;;;;33.08;36.41;99559.53;6316526;20;2749199;-59
2022/06/26 11:09:48;;;;;;;;;5.00;5.00;;;;;33.67;35.28;99563.81;6323429;20;2746530;-58
2022/06/26 11:12:17;;;;;;;;;3.40;3.40;;;;;33.14;36.25;99552.97;6345596;20;2750237;-55
2022/06/26 11:14:54;;;;;;;;;5.00;5.00;;;;;32.95;37.32;99555.88;6291451;20;2739432;-58
2022/06/26 11:17:25;;;;;;;;;5.00;5.00;;;;;33.19;37.29;99562.28;6320291;20;2744044;-60
2022/06/26 11:22:41;;;;;;;;;4.00;4.00;;;;;33.07;38.08;99561.44;6321862;20;2743008;-61
2022/06/26 11:25:10;;;;;;;;;6.00;6.00;;;;;33.40;36.74;99557.97;6321419;20;2744005;-58
2022/06/26 11:27:38;;;;;;;;;6.00;6.00;;;;;32.86;36.86;99559.25;6318725;20;2739900;-59
2022/06/26 11:30:09;;;;;;;;;7.00;5.00;;;;;33.36;36.82;99551.22;6319556;20;2743122;-59
2022/06/26 11:32:37;;;;;;;;;4.67;4.67;;;;;34.11;36.09;99563.28;6320185;20;2740963;-59
2022/06/26 11:35:06;;;;;;;;;4.00;3.00;;;;;33.35;34.97;99559.81;6316031;20;2746076;-59
2022/06/26 11:37:37;;;;;;;;;5.00;5.00;;;;;33.17;35.46;99555.25;6321808;20;2741935;-60
2022/06/26 11:40:17;;;;;;;;;5.67;5.67;;;;;33.77;34.73;99560.41;6324875;20;2737862;-58
2022/06/26 11:42:55;;;;;;;;;5.00;5.00;;;;;33.77;33.96;99563.19;6321776;20;2736729;-58